Time;durP1;ratioP1;P1;durP2;ratioP2;P2;SDS_P1;SDS_P2;PMS_P1;PMS_P2;Temp;Humidity;BMP_temperature;BMP_pressure;BME280_temperature;BME280_humidity;BME280_pressure;Samples;Min_cycle;Max_cycle;Signal;HPM_P1;HPM_P2
2023/10/12 00:00:48;;;;;;;1.95;1.80;;;11.30;52.40;;;;;;5069067;28;20032;-70
2023/10/12 00:03:16;;;;;;;2.65;1.98;;;11.30;52.50;;;;;;5097213;28;20047;-70
2023/10/12 00:05:45;;;;;;;2.10;1.85;;;11.30;52.50;;;;;;5078741;28;20071;-69
2023/10/12 00:08:25;;;;;;;2.22;1.90;;;11.30;52.60;;;;;;5097615;28;20056;-69
2023/10/12 00:10:54;;;;;;;2.15;1.70;;;11.30;52.60;;;;;;5096553;28;20028;-69
2023/10/12 00:13:20;;;;;;;2.10;1.90;;;11.30;52.70;;;;;;5088631;28;20012;-71
2023/10/12 00:15:47;;;;;;;1.90;1.80;;;11.30;52.80;;;;;;5095690;28;20469;-72
2023/10/12 00:18:16;;;;;;;2.40;1.90;;;11.30;52.80;;;;;;5097210;28;20025;-69
2023/10/12 00:20:44;;;;;;;1.70;1.60;;;11.30;52.90;;;;;;5096299;28;20028;-70
2023/10/12 00:23:10;;;;;;;1.90;1.70;;;11.30;53.00;;;;;;5096691;28;20443;-70
2023/10/12 00:25:46;;;;;;;2.22;2.03;;;11.30;53.10;;;;;;5077357;28;20071;-70
2023/10/12 00:28:14;;;;;;;2.33;1.77;;;11.30;53.20;;;;;;5078851;28;20132;-70
2023/10/12 00:30:41;;;;;;;1.70;1.60;;;11.30;53.30;;;;;;5096028;28;20484;-70
2023/10/12 00:33:08;;;;;;;2.35;1.70;;;11.30;53.40;;;;;;5096051;28;20020;-70
2023/10/12 00:35:37;;;;;;;2.08;1.75;;;11.30;53.40;;;;;;5066781;28;20037;-69
2023/10/12 00:38:17;;;;;;;2.35;1.88;;;11.30;53.50;;;;;;5078178;28;20115;-71
2023/10/12 00:40:55;;;;;;;1.73;1.42;;;11.30;53.60;;;;;;5096082;28;20047;-72
2023/10/12 00:43:21;;;;;;;1.63;1.52;;;11.30;54.30;;;;;;5077126;28;20031;-71
2023/10/12 00:45:49;;;;;;;1.90;1.80;;;11.30;53.80;;;;;;5096246;28;20389;-70
2023/10/12 00:48:17;;;;;;;2.00;1.75;;;11.30;53.90;;;;;;5095957;28;20063;-70
2023/10/12 00:50:47;;;;;;;2.47;1.70;;;11.30;53.80;;;;;;5096234;28;20024;-70
2023/10/12 00:55:46;;;;;;;1.70;1.60;;;11.30;54.00;;;;;;5096118;28;20107;-70
2023/10/12 00:58:14;;;;;;;2.13;1.92;;;11.30;54.00;;;;;;5077755;28;20047;-70
2023/10/12 01:00:51;;;;;;;2.00;1.88;;;11.30;54.10;;;;;;5095926;28;20097;-71
2023/10/12 01:08:47;;;;;;;2.00;1.80;;;11.30;54.10;;;;;;5079502;28;20036;-69
2023/10/12 01:11:23;;;;;;;2.17;2.00;;;11.30;54.20;;;;;;5077532;28;20055;-70
2023/10/12 01:16:25;;;;;;;2.05;1.80;;;11.30;54.30;;;;;;5089845;28;20024;-71
2023/10/12 01:19:07;;;;;;;4.00;2.70;;;11.30;54.40;;;;;;5094773;28;20423;-70
2023/10/12 01:21:36;;;;;;;2.58;2.22;;;11.30;54.60;;;;;;5095569;28;20021;-75
2023/10/12 01:24:12;;;;;;;2.42;2.10;;;11.30;54.60;;;;;;5076750;28;20089;-71
2023/10/12 01:26:38;;;;;;;2.10;1.90;;;11.30;54.70;;;;;;5077340;28;20055;-70
2023/10/12 01:29:04;;;;;;;2.33;2.10;;;11.30;54.80;;;;;;5095014;28;20032;-69
2023/10/12 01:31:30;;;;;;;2.05;1.85;;;11.30;54.80;;;;;;5095403;28;20028;-70
2023/10/12 01:33:57;;;;;;;2.35;2.00;;;11.30;54.90;;;;;;5076894;28;20030;-70
2023/10/12 01:36:30;;;;;;;2.20;1.90;;;11.30;55.00;;;;;;5069757;28;20035;-71
2023/10/12 01:39:30;;;;;;;2.30;2.10;;;11.30;55.00;;;;;;5074121;28;20556;-70
2023/10/12 01:41:51;;;;;;;1.98;1.80;;;11.30;55.10;;;;;;5092004;28;20040;-70
2023/10/12 01:44:18;;;;;;;1.85;1.73;;;11.30;55.10;;;;;;5094734;28;20519;-71
2023/10/12 01:46:49;;;;;;;2.53;1.80;;;11.30;55.20;;;;;;5076881;28;20390;-69
2023/10/12 01:49:15;;;;;;;2.03;1.83;;;11.30;55.20;;;;;;5095172;28;20032;-70
2023/10/12 01:51:47;;;;;;;2.00;1.90;;;11.30;55.30;;;;;;5076960;28;20058;-70
2023/10/12 01:54:22;;;;;;;2.17;1.83;;;11.30;55.30;;;;;;5076735;28;20389;-70
2023/10/12 01:56:55;;;;;;;3.40;2.10;;;11.30;55.30;;;;;;5063853;28;20519;-70
2023/10/12 01:59:21;;;;;;;2.58;2.13;;;11.30;55.40;;;;;;5094695;28;20024;-69
2023/10/12 02:01:53;;;;;;;2.72;2.17;;;11.30;55.50;;;;;;5095053;28;20028;-70
2023/10/12 02:04:21;;;;;;;2.75;2.10;;;11.30;55.50;;;;;;5076126;28;20108;-70
2023/10/12 02:06:47;;;;;;;2.45;2.17;;;11.30;55.60;;;;;;5094603;28;20120;-70
2023/10/12 02:09:15;;;;;;;2.70;2.20;;;11.30;55.60;;;;;;5076638;28;20111;-71
2023/10/12 02:11:53;;;;;;;2.20;2.00;;;11.30;55.60;;;;;;5072424;28;20071;-70
2023/10/12 02:14:39;;;;;;;2.35;2.15;;;11.30;55.70;;;;;;5074843;28;20036;-70
2023/10/12 02:17:05;;;;;;;2.95;1.95;;;11.30;55.70;;;;;;5076407;28;20081;-71
2023/10/12 02:19:41;;;;;;;3.58;1.98;;;11.30;55.70;;;;;;5094438;28;20055;-70
2023/10/12 02:22:24;;;;;;;2.28;2.00;;;11.30;55.70;;;;;;5094132;28;20032;-70
2023/10/12 02:27:36;;;;;;;2.17;1.98;;;11.30;55.80;;;;;;5085282;28;20078;-70
2023/10/12 02:30:02;;;;;;;2.22;2.03;;;11.30;55.90;;;;;;5076201;28;20446;-70
2023/10/12 02:32:31;;;;;;;2.38;2.00;;;11.30;56.00;;;;;;5094074;28;20024;-69
2023/10/12 02:35:11;;;;;;;2.92;1.95;;;11.30;56.00;;;;;;5093764;28;20102;-72
2023/10/12 02:37:36;;;;;;;1.92;1.77;;;11.30;56.10;;;;;;5068402;28;20078;-70
2023/10/12 02:40:04;;;;;;;2.08;1.88;;;11.30;56.80;;;;;;5089279;28;20029;-69
2023/10/12 02:42:38;;;;;;;2.15;1.98;;;11.30;56.20;;;;;;5086892;28;20058;-69
2023/10/12 02:45:10;;;;;;;;;;;11.30;56.30;;;;;;5057775;28;20032;-70
2023/10/12 02:47:41;;;;;;;1.83;1.73;;;11.30;56.90;;;;;;5094001;28;19986;-70
2023/10/12 02:52:35;;;;;;;2.90;2.10;;;11.30;56.40;;;;;;5093981;28;20380;-71
2023/10/12 02:55:49;;;;;;;4.78;2.40;;;11.30;56.40;;;;;;5075721;28;20032;-70
2023/10/12 02:57:56;;;;;;;2.35;2.15;;;11.30;56.50;;;;;;5084562;28;20390;-69
2023/10/12 03:00:32;;;;;;;3.78;2.40;;;11.30;56.60;;;;;;5075622;28;20063;-70
2023/10/12 03:03:06;;;;;;;2.72;2.10;;;11.30;56.60;;;;;;5093843;28;20494;-69
2023/10/12 03:05:44;;;;;;;2.30;2.10;;;11.30;56.70;;;;;;5093580;28;20071;-69
2023/10/12 03:08:14;;;;;;;2.97;2.20;;;11.30;56.80;;;;;;5060237;28;20036;-70
2023/10/12 03:11:08;;;;;;;2.47;2.15;;;11.30;56.70;;;;;;5093585;28;20385;-70
2023/10/12 03:13:37;;;;;;;2.75;2.22;;;11.30;56.80;;;;;;5093899;28;20036;-70
2023/10/12 03:16:15;;;;;;;3.05;2.28;;;11.30;56.90;;;;;;5092559;28;20031;-70
2023/10/12 03:18:45;;;;;;;3.35;2.30;;;11.30;57.00;;;;;;5075948;28;20453;-70
2023/10/12 03:21:11;;;;;;;2.55;2.17;;;11.30;57.60;;;;;;5093354;28;20458;-71
2023/10/12 03:23:38;;;;;;;2.60;2.40;;;11.30;57.20;;;;;;5093184;28;20052;-70
2023/10/12 03:26:24;;;;;;;3.35;2.17;;;11.30;57.20;;;;;;5093326;28;20450;-71
2023/10/12 03:29:18;;;;;;;2.30;2.10;;;11.30;57.30;;;;;;5062545;28;20024;-70
2023/10/12 03:34:35;;;;;;;3.22;2.20;;;11.30;57.40;;;;;;5093430;28;20074;-71
2023/10/12 03:37:07;;;;;;;2.92;2.33;;;11.30;57.50;;;;;;5074783;28;20020;-71
2023/10/12 03:39:58;;;;;;;2.55;2.00;;;11.30;57.60;;;;;;5075439;28;20020;-70
2023/10/12 03:44:55;;;;;;;2.80;2.40;;;11.30;57.80;;;;;;5092880;28;20093;-72
2023/10/12 03:52:39;;;;;;;2.78;2.28;;;11.30;58.00;;;;;;5093574;28;20063;-70
2023/10/12 03:57:45;;;;;;;4.07;2.00;;;11.30;58.10;;;;;;5091825;28;20020;-72
2023/10/12 04:21:22;;;;;;;2.50;2.00;;;11.30;58.40;;;;;;5086997;28;20027;-72
2023/10/12 04:28:58;;;;;;;2.72;1.98;;;11.40;59.90;;;;;;5096069;28;20036;-69
2023/10/12 04:34:08;;;;;;;3.33;2.05;;;11.50;59.60;;;;;;5085719;28;20046;-67
2023/10/12 04:36:52;;;;;;;1.88;1.77;;;11.60;59.70;;;;;;5096183;28;20103;-70
2023/10/12 04:39:27;;;;;;;2.35;1.88;;;11.60;59.60;;;;;;5078039;28;20024;-70
2023/10/12 04:46:59;;;;;;;2.60;2.20;;;11.60;60.30;;;;;;5085491;28;20063;-70
2023/10/12 04:54:36;;;;;;;2.10;1.90;;;11.60;59.80;;;;;;5084197;28;20095;-71
2023/10/12 04:59:42;;;;;;;3.50;2.08;;;11.70;59.90;;;;;;5086434;28;20028;-70
2023/10/12 05:07:28;;;;;;;3.42;1.73;;;11.80;60.60;;;;;;5056351;28;20036;-70
2023/10/12 05:09:54;;;;;;;2.08;1.85;;;11.90;60.40;;;;;;5094739;28;20032;-71
2023/10/12 05:12:24;;;;;;;2.00;1.80;;;11.90;60.30;;;;;;5084125;28;20534;-71
2023/10/12 05:14:55;;;;;;;2.22;2.00;;;11.90;60.30;;;;;;5067214;28;20035;-72
2023/10/12 05:17:24;;;;;;;2.00;1.77;;;12.00;60.30;;;;;;5086692;28;20044;-72
2023/10/12 05:19:53;;;;;;;2.13;1.80;;;12.00;60.20;;;;;;5083468;28;20059;-72
2023/10/12 05:22:22;;;;;;;3.00;1.85;;;12.00;60.20;;;;;;5068276;28;20047;-72
2023/10/12 05:24:47;;;;;;;2.00;1.90;;;12.10;60.30;;;;;;5066606;28;20371;-73
2023/10/12 05:27:23;;;;;;;2.13;1.90;;;12.10;60.30;;;;;;5084607;28;20020;-72
2023/10/12 05:29:52;;;;;;;1.92;1.73;;;12.10;60.30;;;;;;5084922;28;20495;-73
2023/10/12 05:32:18;;;;;;;2.40;1.88;;;12.10;60.30;;;;;;5070476;28;20024;-71
2023/10/12 05:34:46;;;;;;;2.85;2.10;;;12.10;60.30;;;;;;5094837;28;20051;-72
2023/10/12 05:39:50;;;;;;;1.90;1.80;;;12.20;60.30;;;;;;5095607;28;20373;-71
2023/10/12 05:42:19;;;;;;;2.22;1.92;;;12.20;60.20;;;;;;5095575;28;20027;-70
2023/10/12 05:44:49;;;;;;;3.40;1.80;;;12.20;60.20;;;;;;5093293;28;20128;-70
2023/10/12 05:47:17;;;;;;;2.42;1.90;;;12.30;60.30;;;;;;5090888;28;20035;-70
2023/10/12 05:49:50;;;;;;;1.98;1.77;;;12.30;60.30;;;;;;5094268;28;20035;-71
2023/10/12 05:52:17;;;;;;;3.42;1.80;;;12.30;60.30;;;;;;5095318;28;20024;-71
2023/10/12 05:54:43;;;;;;;2.97;1.98;;;12.30;60.30;;;;;;5077001;28;20054;-73
2023/10/12 05:57:19;;;;;;;2.40;1.85;;;12.30;60.30;;;;;;5077430;28;20095;-71
2023/10/12 05:59:49;;;;;;;3.70;1.90;;;12.30;60.30;;;;;;5095475;28;20032;-70
2023/10/12 06:02:17;;;;;;;2.05;1.60;;;12.40;60.40;;;;;;5095286;28;20032;-71
2023/10/12 06:04:44;;;;;;;1.77;1.65;;;12.40;60.30;;;;;;5094421;28;20055;-69
2023/10/12 06:07:11;;;;;;;2.00;1.60;;;12.40;60.30;;;;;;5094826;28;20097;-70
2023/10/12 06:09:37;;;;;;;1.70;1.60;;;12.50;60.30;;;;;;5094945;28;20089;-71
2023/10/12 06:12:07;;;;;;;2.60;1.55;;;12.50;60.30;;;;;;5076916;28;20024;-71
2023/10/12 06:14:34;;;;;;;1.85;1.70;;;12.50;60.30;;;;;;5095031;28;20039;-71
2023/10/12 06:17:02;;;;;;;1.80;1.70;;;12.50;60.30;;;;;;5094814;28;20024;-69
2023/10/12 06:19:34;;;;;;;2.08;1.83;;;12.50;60.40;;;;;;5094552;28;20104;-71
2023/10/12 06:22:00;;;;;;;2.15;1.85;;;12.50;60.40;;;;;;5095433;28;20107;-70
2023/10/12 06:24:35;;;;;;;1.83;1.60;;;12.50;60.50;;;;;;5076723;28;20131;-69
2023/10/12 06:27:22;;;;;;;1.80;1.70;;;12.50;60.60;;;;;;5076703;28;20050;-71
2023/10/12 06:29:48;;;;;;;2.13;1.80;;;12.50;60.50;;;;;;5094596;28;20026;-75
2023/10/12 06:32:17;;;;;;;2.03;1.80;;;12.60;60.50;;;;;;5075391;28;20114;-70
2023/10/12 06:34:43;;;;;;;5.97;1.77;;;12.60;60.50;;;;;;5076693;28;20461;-71
2023/10/12 06:37:49;;;;;;;2.38;1.95;;;12.60;60.60;;;;;;5094447;28;20036;-71
2023/10/12 06:42:44;;;;;;;2.37;1.97;;;12.70;60.60;;;;;;5093735;28;20066;-71
2023/10/12 06:45:15;;;;;;;2.50;1.70;;;12.70;60.50;;;;;;5094291;28;20039;-71
2023/10/12 06:47:41;;;;;;;77.47;53.33;;;12.80;60.50;;;;;;5093704;28;20039;-67
2023/10/12 06:50:14;;;;;;;6.88;2.13;;;12.80;62.10;;;;;;5075727;28;20029;-68
2023/10/12 06:52:41;;;;;;;2.40;1.92;;;13.00;64.90;;;;;;5094045;28;20055;-66
2023/10/12 06:55:09;;;;;;;5.00;1.90;;;13.30;65.80;;;;;;5076003;28;20031;-69
2023/10/12 06:57:43;;;;;;;5.25;2.08;;;13.80;65.50;;;;;;5075388;28;20024;-68
2023/10/12 07:02:35;;;;;;;6.55;2.38;;;14.50;64.70;;;;;;5094210;28;20044;-67
2023/10/12 07:05:05;;;;;;;14.65;2.80;;;14.90;64.50;;;;;;5054753;28;20418;-68
2023/10/12 07:07:41;;;;;;;6.95;2.60;;;15.20;64.10;;;;;;5065760;28;20115;-68
2023/10/12 07:12:48;;;;;;;7.07;2.58;;;15.70;63.40;;;;;;5093389;28;20056;-67
2023/10/12 07:15:22;;;;;;;4.97;2.53;;;15.90;63.70;;;;;;5093654;28;20023;-68
2023/10/12 07:17:49;;;;;;;6.80;2.97;;;16.10;62.70;;;;;;5090405;28;20040;-71
2023/10/12 07:22:58;;;;;;;3.63;2.28;;;16.30;61.30;;;;;;5094209;28;20104;-69
2023/10/12 07:25:26;;;;;;;4.57;1.73;;;16.30;60.50;;;;;;5075483;28;20123;-71
2023/10/12 07:28:01;;;;;;;4.68;1.88;;;16.10;60.20;;;;;;5093798;28;20120;-71
2023/10/12 07:30:30;;;;;;;2.50;1.90;;;16.00;60.20;;;;;;5093680;28;20526;-71
2023/10/12 07:32:59;;;;;;;3.00;1.90;;;15.80;60.20;;;;;;5075507;28;20024;-70
2023/10/12 07:35:38;;;;;;;3.20;1.85;;;15.70;60.30;;;;;;5075411;28;20448;-71
2023/10/12 07:38:43;;;;;;;1.67;1.58;;;15.60;60.40;;;;;;5093575;28;20112;-71
2023/10/12 07:41:01;;;;;;;1.85;1.58;;;15.50;60.30;;;;;;5090293;28;20070;-70
2023/10/12 07:43:31;;;;;;;3.28;1.70;;;15.40;60.30;;;;;;5093276;28;20478;-71
2023/10/12 07:46:13;;;;;;;2.03;1.70;;;15.30;60.40;;;;;;5093480;28;20401;-71
2023/10/12 07:48:43;;;;;;;3.45;1.65;;;15.20;60.30;;;;;;5075562;28;20076;-71
2023/10/12 07:51:15;;;;;;;2.17;1.85;;;15.20;60.30;;;;;;5093501;28;20028;-70
2023/10/12 07:53:50;;;;;;;4.40;1.52;;;15.10;60.40;;;;;;5078482;28;20373;-71
2023/10/12 07:56:16;;;;;;;11.13;2.03;;;15.10;60.40;;;;;;5097922;28;20159;-70
2023/10/12 07:58:58;;;;;;;2.47;1.80;;;15.10;60.40;;;;;;5079698;28;20028;-70
2023/10/12 08:03:58;;;;;;;3.25;1.95;;;15.00;60.20;;;;;;5097359;28;20416;-71
2023/10/12 08:06:57;;;;;;;4.72;1.75;;;15.00;60.20;;;;;;5079276;28;20028;-70
2023/10/12 08:11:51;;;;;;;3.97;1.88;;;15.00;60.10;;;;;;5097308;28;20062;-69
2023/10/12 08:19:43;;;;;;;2.40;1.80;;;15.00;60.00;;;;;;5097038;28;20480;-72
2023/10/12 08:22:17;;;;;;;2.70;1.90;;;15.00;60.00;;;;;;5078757;28;20032;-70
2023/10/12 08:24:45;;;;;;;3.80;1.83;;;15.10;59.90;;;;;;5096771;28;20142;-70
2023/10/12 08:27:12;;;;;;;4.15;1.90;;;15.10;59.90;;;;;;5096730;28;20038;-70
2023/10/12 08:39:38;;;;;;;4.75;1.80;;;15.10;59.60;;;;;;5097609;28;20422;-70
2023/10/12 08:44:51;;;;;;;3.03;1.60;;;15.10;59.50;;;;;;5096787;28;20028;-70
2023/10/12 08:47:26;;;;;;;3.50;1.77;;;15.20;59.40;;;;;;5078719;28;20077;-70
2023/10/12 08:52:32;;;;;;;4.45;1.95;;;15.20;59.30;;;;;;5096761;28;20027;-71
2023/10/12 08:58:18;;;;;;;3.17;1.70;;;15.20;59.30;;;;;;5096284;28;20115;-71
2023/10/12 09:03:27;;;;;;;2.53;1.55;;;15.20;59.10;;;;;;5096366;28;20048;-71
2023/10/12 09:05:54;;;;;;;2.10;1.90;;;15.30;59.10;;;;;;5077219;28;20478;-71
2023/10/12 09:11:02;;;;;;;3.70;2.70;;;15.30;59.10;;;;;;5096181;28;20032;-72
2023/10/12 09:13:34;;;;;;;1.60;1.50;;;15.40;59.10;;;;;;5096195;28;20024;-70
2023/10/12 09:16:11;;;;;;;7.15;1.90;;;15.30;59.00;;;;;;5096463;28;20503;-71
2023/10/12 09:24:06;;;;;;;1.98;1.77;;;15.30;59.00;;;;;;5095990;28;20119;-72
2023/10/12 09:26:34;;;;;;;3.72;1.83;;;15.30;58.90;;;;;;5096442;28;20036;-70
2023/10/12 09:32:14;;;;;;;3.55;1.90;;;15.30;58.90;;;;;;5095869;28;20393;-72
2023/10/12 09:34:46;;;;;;;4.43;1.80;;;15.30;58.90;;;;;;5095589;28;20390;-70
2023/10/12 09:37:18;;;;;;;2.08;1.85;;;15.30;58.90;;;;;;5095900;28;20065;-70
2023/10/12 09:39:45;;;;;;;1.85;1.65;;;15.30;58.90;;;;;;5095288;28;20039;-71
2023/10/12 09:42:22;;;;;;;5.28;1.85;;;15.30;58.90;;;;;;5096040;28;20452;-71
2023/10/12 09:45:01;;;;;;;3.63;1.83;;;15.30;58.90;;;;;;5077267;28;20054;-70
2023/10/12 09:47:43;;;;;;;2.42;1.83;;;15.30;58.90;;;;;;5095894;28;20039;-71
2023/10/12 09:50:15;;;;;;;2.35;1.83;;;15.30;58.80;;;;;;5077368;28;20457;-70
2023/10/12 09:52:46;;;;;;;4.85;1.75;;;15.30;58.90;;;;;;5095938;28;20103;-70
2023/10/12 09:55:23;;;;;;;3.22;1.80;;;15.30;58.90;;;;;;5077439;28;20469;-72
2023/10/12 09:57:50;;;;;;;2.05;1.73;;;15.40;58.90;;;;;;5095392;28;20039;-70
2023/10/12 10:00:53;;;;;;;3.65;1.70;;;15.40;58.80;;;;;;5076972;28;20457;-71
2023/10/12 10:03:17;;;;;;;3.20;1.83;;;15.40;58.80;;;;;;5094831;28;20056;-72
2023/10/12 10:05:54;;;;;;;2.05;1.85;;;15.40;58.80;;;;;;5077207;28;20044;-70
2023/10/12 10:08:26;;;;;;;2.85;1.60;;;15.40;58.80;;;;;;5095035;28;20039;-70
2023/10/12 10:10:57;;;;;;;2.20;1.95;;;15.40;58.80;;;;;;5076271;28;20081;-72
2023/10/12 10:13:49;;;;;;;5.47;1.83;;;15.40;58.70;;;;;;5095157;28;20028;-71
2023/10/12 10:16:18;;;;;;;5.07;2.10;;;15.50;58.80;;;;;;5076918;28;20393;-70
2023/10/12 10:18:56;;;;;;;4.80;1.75;;;15.50;58.70;;;;;;5094921;28;20028;-70
2023/10/12 10:21:28;;;;;;;3.30;1.80;;;15.50;58.70;;;;;;5076510;28;20045;-69
2023/10/12 10:23:57;;;;;;;3.45;1.83;;;15.60;58.70;;;;;;5094907;28;20514;-71
2023/10/12 10:26:30;;;;;;;3.35;1.80;;;15.60;58.70;;;;;;5094837;28;20028;-71
2023/10/12 10:29:05;;;;;;;3.55;1.90;;;15.60;58.70;;;;;;5094761;28;20454;-70
2023/10/12 10:31:35;;;;;;;2.55;1.73;;;15.70;58.70;;;;;;5076315;28;20035;-70
2023/10/12 10:34:07;;;;;;;2.53;1.98;;;15.60;58.60;;;;;;5094612;28;20028;-71
2023/10/12 10:36:34;;;;;;;4.65;1.90;;;15.70;58.70;;;;;;5094671;28;20099;-70
2023/10/12 10:41:46;;;;;;;3.72;1.88;;;15.70;58.60;;;;;;5094458;28;20085;-72
2023/10/12 10:44:21;;;;;;;2.20;1.73;;;15.70;58.50;;;;;;5093543;28;20031;-71
2023/10/12 10:46:54;;;;;;;3.10;1.90;;;15.80;58.60;;;;;;5076136;28;20028;-71
2023/10/12 10:49:21;;;;;;;2.63;2.00;;;15.80;58.50;;;;;;5076514;28;20055;-70
2023/10/12 10:51:55;;;;;;;3.65;1.95;;;15.80;58.50;;;;;;5094202;28;20031;-70
2023/10/12 10:54:22;;;;;;;2.33;1.92;;;15.80;58.50;;;;;;5094419;28;20032;-70
2023/10/12 10:56:48;;;;;;;4.90;2.00;;;15.90;58.50;;;;;;5076031;28;20101;-71
2023/10/12 10:59:17;;;;;;;2.85;2.20;;;15.90;58.40;;;;;;5094251;28;20056;-70
2023/10/12 11:01:50;;;;;;;2.35;2.15;;;15.90;58.40;;;;;;5076003;28;20024;-70
2023/10/12 11:05:10;;;;;;;2.92;2.38;;;15.90;58.40;;;;;;5075927;28;20516;-70
2023/10/12 11:07:18;;;;;;;2.70;2.03;;;16.00;58.40;;;;;;5083423;28;20454;-71
2023/10/12 11:12:20;;;;;;;4.88;2.33;;;16.00;58.40;;;;;;5094152;28;20024;-74
2023/10/12 11:14:58;;;;;;;3.88;2.13;;;16.10;58.30;;;;;;5094062;28;20028;-70
2023/10/12 11:17:27;;;;;;;6.90;2.10;;;16.10;58.30;;;;;;5075842;28;20070;-69
2023/10/12 11:19:53;;;;;;;3.65;2.25;;;16.10;58.20;;;;;;5075749;28;20030;-72
2023/10/12 11:22:19;;;;;;;5.38;2.20;;;16.20;58.20;;;;;;5075828;28;20111;-71
2023/10/12 11:24:45;;;;;;;3.13;2.13;;;16.20;58.10;;;;;;5093869;28;20028;-70
2023/10/12 11:27:27;;;;;;;3.80;2.10;;;16.20;58.10;;;;;;5075315;28;20024;-69
2023/10/12 11:29:54;;;;;;;2.55;1.90;;;16.20;58.10;;;;;;5075517;28;20036;-71
2023/10/12 11:32:20;;;;;;;3.83;2.00;;;16.30;58.10;;;;;;5076501;28;20073;-71
2023/10/12 11:34:55;;;;;;;3.45;2.03;;;16.30;57.90;;;;;;5076352;28;20359;-69
2023/10/12 11:37:21;;;;;;;5.90;2.33;;;16.30;57.90;;;;;;5093602;28;20028;-70
2023/10/12 11:39:49;;;;;;;3.63;2.30;;;16.40;57.90;;;;;;5075584;28;20476;-70
2023/10/12 11:42:14;;;;;;;4.10;2.05;;;16.40;57.70;;;;;;5093399;28;20024;-71
2023/10/12 11:44:45;;;;;;;4.25;2.20;;;16.50;57.70;;;;;;5093283;28;20446;-73
2023/10/12 11:47:13;;;;;;;3.70;2.28;;;16.50;57.70;;;;;;5093923;28;20111;-70
2023/10/12 11:49:57;;;;;;;5.63;2.30;;;16.60;57.60;;;;;;5075590;28;20159;-70
2023/10/12 11:52:40;;;;;;;2.70;2.28;;;16.60;57.50;;;;;;5075595;28;20044;-71
2023/10/12 11:55:20;;;;;;;4.25;2.13;;;16.70;57.50;;;;;;5093853;28;20055;-71
2023/10/12 11:57:48;;;;;;;4.30;2.10;;;16.70;57.40;;;;;;5076093;28;20358;-71
2023/10/12 12:00:21;;;;;;;4.45;2.05;;;16.70;57.30;;;;;;5093519;28;20107;-72
2023/10/12 12:02:55;;;;;;;2.20;1.80;;;16.70;57.30;;;;;;5075286;28;20070;-70
2023/10/12 12:05:22;;;;;;;2.80;2.10;;;16.70;57.20;;;;;;5075326;28;20145;-72
2023/10/12 12:07:51;;;;;;;2.25;2.05;;;16.80;57.20;;;;;;5093999;28;20030;-70
2023/10/12 12:10:19;;;;;;;3.65;1.80;;;16.80;57.20;;;;;;5093235;28;20028;-70
2023/10/12 12:12:45;;;;;;;3.22;1.90;;;16.80;57.10;;;;;;5075672;28;20020;-71
2023/10/12 12:15:14;;;;;;;2.90;2.00;;;16.90;57.10;;;;;;5093554;28;20101;-71
2023/10/12 12:17:40;;;;;;;3.80;2.00;;;16.90;57.00;;;;;;5093474;28;20047;-70
2023/10/12 12:20:15;;;;;;;4.65;1.95;;;16.90;57.00;;;;;;5074634;28;20028;-72
2023/10/12 12:22:43;;;;;;;3.78;2.10;;;16.90;57.00;;;;;;5093231;28;20334;-72
2023/10/12 12:25:23;;;;;;;3.08;1.90;;;16.90;57.00;;;;;;5093317;28;20493;-72
2023/10/12 12:27:49;;;;;;;3.03;1.90;;;17.00;57.00;;;;;;5093316;28;20036;-71
2023/10/12 12:30:29;;;;;;;3.35;2.00;;;17.00;56.90;;;;;;5093297;28;20072;-70
2023/10/12 12:33:00;;;;;;;5.18;1.90;;;17.00;56.80;;;;;;5093673;28;20020;-72
2023/10/12 12:35:38;;;;;;;6.43;2.00;;;17.10;56.80;;;;;;5093641;28;20110;-71
2023/10/12 12:38:17;;;;;;;4.28;1.80;;;17.10;56.70;;;;;;5075167;28;20026;-72
2023/10/12 12:40:45;;;;;;;4.82;2.03;;;17.20;56.60;;;;;;5095163;28;20427;-70
2023/10/12 12:43:11;;;;;;;4.35;1.73;;;17.20;56.60;;;;;;5097085;28;20088;-71
2023/10/12 12:45:36;;;;;;;3.55;1.73;;;17.20;56.50;;;;;;5096773;28;20107;-71
2023/10/12 12:48:04;;;;;;;2.88;1.95;;;17.30;57.10;;;;;;5078394;28;20049;-71
2023/10/12 12:50:30;;;;;;;4.18;1.60;;;17.30;56.40;;;;;;5078117;28;20032;-71
2023/10/12 12:52:57;;;;;;;3.38;1.98;;;17.30;56.40;;;;;;5096464;28;20028;-71
2023/10/12 12:55:27;;;;;;;2.92;1.80;;;17.40;56.30;;;;;;5096468;28;20036;-71
2023/10/12 12:57:56;;;;;;;3.38;1.88;;;17.50;56.20;;;;;;5078352;28;20024;-72
2023/10/12 13:00:22;;;;;;;4.45;1.73;;;17.50;56.10;;;;;;5096628;28;20374;-70
2023/10/12 13:02:48;;;;;;;7.00;2.10;;;17.60;56.10;;;;;;5095978;28;20139;-71
2023/10/12 13:05:14;;;;;;;3.78;1.77;;;17.60;56.00;;;;;;5096290;28;20129;-71
2023/10/12 13:07:46;;;;;;;3.30;1.90;;;17.70;55.90;;;;;;5078255;28;20103;-72
2023/10/12 13:10:14;;;;;;;3.22;1.90;;;17.70;55.80;;;;;;5096589;28;20474;-70
2023/10/12 13:12:40;;;;;;;5.00;1.70;;;17.80;55.80;;;;;;5096114;28;20028;-72
2023/10/12 13:15:09;;;;;;;3.72;1.73;;;17.80;55.60;;;;;;5097086;28;20474;-70
2023/10/12 13:17:38;;;;;;;2.10;1.70;;;17.90;55.50;;;;;;5077947;28;20020;-70
2023/10/12 13:20:06;;;;;;;2.13;1.60;;;18.00;55.50;;;;;;5095589;28;20103;-71
2023/10/12 13:22:32;;;;;;;1.85;1.63;;;18.00;55.30;;;;;;5085831;28;20032;-71
2023/10/12 13:24:58;;;;;;;2.20;1.63;;;18.10;55.20;;;;;;5075430;28;20044;-71
2023/10/12 13:27:27;;;;;;;3.53;1.90;;;18.20;55.10;;;;;;5075764;28;20025;-71
2023/10/12 13:30:09;;;;;;;4.57;1.70;;;18.30;54.90;;;;;;5075585;28;20033;-71
2023/10/12 13:32:38;;;;;;;1.75;1.42;;;18.30;54.70;;;;;;5075851;28;20050;-72
2023/10/12 13:35:18;;;;;;;2.17;1.70;;;18.50;54.60;;;;;;5075464;28;20107;-72
2023/10/12 13:37:47;;;;;;;2.15;1.73;;;18.60;54.40;;;;;;5075604;28;20028;-71
2023/10/12 13:40:16;;;;;;;2.97;1.63;;;18.60;54.30;;;;;;5057244;28;20025;-75
2023/10/12 13:42:46;;;;;;;2.70;1.50;;;18.70;54.10;;;;;;5086832;28;20080;-71
2023/10/12 13:45:18;;;;;;;2.10;1.60;;;18.70;54.60;;;;;;5077117;28;20055;-71
2023/10/12 13:47:48;;;;;;;2.80;1.67;;;18.80;54.00;;;;;;5095396;28;20028;-71
2023/10/12 13:50:14;;;;;;;5.95;1.90;;;18.70;53.80;;;;;;5076953;28;20034;-72
2023/10/12 13:52:40;;;;;;;3.08;1.70;;;18.70;53.90;;;;;;5095273;28;20032;-72
2023/10/12 13:55:13;;;;;;;4.38;1.70;;;18.70;53.90;;;;;;5095352;28;20546;-70
2023/10/12 13:57:55;;;;;;;5.80;1.90;;;18.70;54.00;;;;;;5060927;28;20028;-71
2023/10/12 14:00:33;;;;;;;5.38;1.70;;;18.80;53.90;;;;;;5095708;28;20424;-72
2023/10/12 14:03:10;;;;;;;2.55;1.85;;;18.90;53.90;;;;;;5076860;28;20432;-70
2023/10/12 14:05:40;;;;;;;2.75;2.00;;;19.00;53.90;;;;;;5094861;28;20036;-70
2023/10/12 14:08:10;;;;;;;2.22;1.70;;;19.00;53.70;;;;;;5076947;28;20023;-71
2023/10/12 14:10:43;;;;;;;2.75;1.67;;;18.90;53.60;;;;;;5076881;28;20024;-71
2023/10/12 14:13:11;;;;;;;3.70;2.00;;;18.80;53.50;;;;;;5076727;28;20036;-72
2023/10/12 14:15:38;;;;;;;3.00;2.00;;;18.70;53.70;;;;;;5095036;28;20110;-73
2023/10/12 14:18:04;;;;;;;2.92;1.90;;;18.60;53.60;;;;;;5076570;28;20461;-71
2023/10/12 14:20:33;;;;;;;3.92;2.22;;;18.50;53.70;;;;;;5076868;28;20045;-70
2023/10/12 14:23:05;;;;;;;4.05;2.00;;;18.40;53.80;;;;;;5094496;28;20077;-71
2023/10/12 14:25:50;;;;;;;3.70;2.28;;;18.30;53.90;;;;;;5076754;28;20067;-71
2023/10/12 14:28:17;;;;;;;3.63;2.33;;;18.20;54.00;;;;;;5094763;28;20051;-70
2023/10/12 14:30:47;;;;;;;3.95;2.20;;;18.10;54.10;;;;;;5076301;28;20059;-71
2023/10/12 14:33:19;;;;;;;3.30;2.20;;;18.10;54.20;;;;;;5076313;28;20470;-70
2023/10/12 14:35:45;;;;;;;2.50;2.30;;;18.00;54.20;;;;;;5076420;28;20039;-71
2023/10/12 14:38:14;;;;;;;5.28;2.28;;;17.90;54.30;;;;;;5094815;28;20024;-72
2023/10/12 14:40:42;;;;;;;2.67;2.03;;;17.80;54.40;;;;;;5076381;28;20032;-72
2023/10/12 14:43:12;;;;;;;5.80;2.25;;;17.70;54.40;;;;;;5094064;28;20035;-71
2023/10/12 14:45:55;;;;;;;3.38;2.22;;;17.60;54.50;;;;;;5094671;28;20036;-72
2023/10/12 14:48:25;;;;;;;5.78;2.25;;;17.60;54.60;;;;;;5076750;28;20028;-71
2023/10/12 14:51:07;;;;;;;4.32;2.10;;;17.50;54.70;;;;;;5094360;28;20051;-71
2023/10/12 14:53:35;;;;;;;6.18;2.20;;;17.40;54.80;;;;;;5094034;28;20465;-72
2023/10/12 14:56:03;;;;;;;3.35;2.15;;;17.40;54.90;;;;;;5093733;28;20051;-71
2023/10/12 14:58:30;;;;;;;2.03;1.83;;;17.30;54.90;;;;;;5093879;28;20027;-71
2023/10/12 15:00:56;;;;;;;2.88;2.20;;;17.20;54.90;;;;;;5059304;28;20043;-72
2023/10/12 15:03:22;;;;;;;3.05;2.10;;;17.20;55.10;;;;;;5093092;28;20048;-70
2023/10/12 15:05:51;;;;;;;2.78;2.03;;;17.10;55.10;;;;;;5075702;28;20061;-71
2023/10/12 15:08:18;;;;;;;3.95;2.00;;;17.00;55.50;;;;;;5094068;28;20031;-72
2023/10/12 15:10:43;;;;;;;6.45;2.85;;;17.00;55.20;;;;;;5093848;28;20481;-70
2023/10/12 15:13:13;;;;;;;4.57;2.33;;;16.90;55.30;;;;;;5093188;28;20032;-71
2023/10/12 15:15:40;;;;;;;6.85;2.45;;;16.90;55.40;;;;;;5093894;28;20035;-72
2023/10/12 15:18:06;;;;;;;7.03;2.50;;;16.80;55.40;;;;;;5075785;28;20030;-71
2023/10/12 15:20:32;;;;;;;5.28;2.40;;;16.80;55.50;;;;;;5093730;28;20347;-72
2023/10/12 15:23:00;;;;;;;5.10;2.40;;;16.70;55.60;;;;;;5075410;28;20024;-72
2023/10/12 15:25:26;;;;;;;3.13;2.17;;;16.70;55.60;;;;;;5093722;28;20075;-70